Time;durP1;ratioP1;P1;durP2;ratioP2;P2;SDS_P1;SDS_P2;PMS_P1;PMS_P2;Temp;Humidity;BMP_temperature;BMP_pressure;BME280_temperature;BME280_humidity;BME280_pressure;Samples;Min_cycle;Max_cycle;Signal;HPM_P1;HPM_P2
2021/05/29 00:00:45;;;;;;;10.35;9.20;;;;;;;18.08;50.94;99293.97;4896287;29;20036;-77
2021/05/29 00:03:10;;;;;;;10.25;8.50;;;;;;;18.49;51.18;99369.69;4896540;29;20433;-77
2021/05/29 00:05:36;;;;;;;10.00;9.20;;;;;;;18.48;50.97;99357.38;4896913;29;20100;-77
2021/05/29 00:08:01;;;;;;;11.23;8.55;;;;;;;18.39;51.00;99348.91;4896346;29;20058;-78
2021/05/29 00:10:26;;;;;;;10.40;9.48;;;;;;;18.14;50.99;99318.94;4896495;29;20031;-77
2021/05/29 00:12:52;;;;;;;10.93;8.73;;;;;;;17.88;51.06;99290.81;4896596;29;20027;-78
2021/05/29 00:15:18;;;;;;;9.57;8.68;;;;;;;18.35;51.23;99360.28;4896331;29;20449;-77
2021/05/29 00:17:43;;;;;;;10.32;8.48;;;;;;;18.41;51.08;99365.53;4896333;29;20029;-77
2021/05/29 00:20:09;;;;;;;9.40;8.60;;;;;;;18.29;51.06;99338.00;4896573;29;20510;-77
2021/05/29 00:22:35;;;;;;;9.30;8.40;;;;;;;17.95;51.03;99277.34;4896524;29;20032;-77
2021/05/29 00:25:00;;;;;;;8.90;8.10;;;;;;;18.10;51.08;99317.78;4896665;29;20092;-78
2021/05/29 00:27:25;;;;;;;10.85;8.30;;;;;;;17.67;51.04;99228.09;4896495;29;20056;-77
2021/05/29 00:29:51;;;;;;;9.77;8.30;;;;;;;18.33;51.00;99357.84;4896407;29;20024;-77
2021/05/29 00:32:16;;;;;;;8.82;7.93;;;;;;;18.23;51.13;99325.56;4896406;29;20036;-77
2021/05/29 00:34:42;;;;;;;8.73;7.78;;;;;;;18.26;51.13;99338.44;4896411;29;20031;-77
2021/05/29 00:37:07;;;;;;;9.45;8.35;;;;;;;18.36;51.04;99352.03;4894979;29;20040;-78
2021/05/29 00:39:32;;;;;;;9.63;8.70;;;;;;;18.44;50.84;99361.56;4896439;29;20397;-77
2021/05/29 00:41:58;;;;;;;9.75;8.70;;;;;;;18.12;50.80;99302.31;4894975;29;20029;-77
2021/05/29 00:44:23;;;;;;;7.63;6.93;;;;;;;18.16;50.93;99316.03;4896109;29;20474;-77
2021/05/29 00:46:49;;;;;;;8.88;7.90;;;;;;;17.52;50.56;99227.69;4896432;29;20026;-77
2021/05/29 00:49:14;;;;;;;8.23;7.45;;;;;;;18.32;50.91;99353.56;4894818;29;20103;-78
2021/05/29 00:51:40;;;;;;;9.38;7.68;;;;;;;17.94;50.95;99297.09;4896246;29;20035;-77
2021/05/29 00:54:06;;;;;;;7.82;7.03;;;;;;;17.77;50.89;99273.72;4895055;29;20482;-77
2021/05/29 00:56:32;;;;;;;9.75;6.97;;;;;;;18.38;50.93;99351.81;4895855;29;20103;-77
2021/05/29 00:58:57;;;;;;;9.00;7.10;;;;;;;18.23;50.70;99319.41;4896045;29;20466;-77
2021/05/29 01:01:23;;;;;;;8.20;7.45;;;;;;;17.90;50.65;99264.69;4896292;29;20435;-77
2021/05/29 01:03:48;;;;;;;7.88;7.15;;;;;;;18.27;50.58;99324.03;4896228;29;20485;-77
2021/05/29 01:06:13;;;;;;;8.15;7.43;;;;;;;18.12;50.72;99294.31;4896308;29;20020;-77
2021/05/29 01:08:39;;;;;;;8.65;7.78;;;;;;;18.29;50.67;99329.16;4895982;29;20076;-77
2021/05/29 01:11:07;;;;;;;8.38;7.22;;;;;;;18.30;50.90;99347.63;4894817;29;20052;-77
2021/05/29 01:13:34;;;;;;;8.00;7.30;;;;;;;18.22;50.83;99328.47;4896891;29;20020;-78
2021/05/29 01:16:06;;;;;;;9.95;7.05;;;;;;;17.75;50.78;99249.09;4899480;29;20083;-78
2021/05/29 01:18:32;;;;;;;8.10;7.30;;;;;;;18.05;50.62;99304.31;4898228;29;20032;-77
2021/05/29 01:21:00;;;;;;;8.38;7.13;;;;;;;18.08;50.95;99303.84;4899805;29;20058;-78
2021/05/29 01:23:26;;;;;;;8.07;6.68;;;;;;;18.05;50.89;99289.09;4898162;29;20516;-78
2021/05/29 01:25:51;;;;;;;7.28;6.57;;;;;;;17.83;50.83;99255.94;4899263;29;20033;-78
2021/05/29 01:28:30;;;;;;;7.65;6.93;;;;;;;18.18;50.47;99312.09;4897892;29;20027;-77
2021/05/29 01:31:01;;;;;;;7.88;7.03;;;;;;;17.67;50.91;99248.63;4897728;29;20107;-77
2021/05/29 01:33:32;;;;;;;6.72;6.22;;;;;;;17.78;50.80;99266.50;4899172;29;20111;-77
2021/05/29 01:35:59;;;;;;;7.40;6.63;;;;;;;18.08;51.01;99310.00;4898936;29;20028;-77
2021/05/29 01:38:25;;;;;;;7.32;6.30;;;;;;;18.20;50.63;99309.19;4899056;29;20116;-78
2021/05/29 01:40:51;;;;;;;11.02;6.38;;;;;;;18.03;50.93;99296.50;4898994;29;20025;-77
2021/05/29 01:43:18;;;;;;;8.02;5.82;;;;;;;17.74;50.66;99230.63;4899004;29;20025;-77
2021/05/29 01:45:45;;;;;;;7.05;5.75;;;;;;;18.18;50.85;99304.06;4899087;29;20029;-77
2021/05/29 01:48:10;;;;;;;7.40;6.70;;;;;;;17.87;51.11;99286.53;4899004;29;20450;-77
2021/05/29 01:50:47;;;;;;;7.10;5.65;;;;;;;18.11;50.95;99303.38;4897514;29;20031;-78
2021/05/29 01:53:14;;;;;;;7.97;6.30;;;;;;;18.05;50.86;99296.28;4897532;29;20052;-78
2021/05/29 01:55:40;;;;;;;7.75;6.00;;;;;;;17.98;51.10;99296.41;4898628;29;20032;-78
2021/05/29 01:58:06;;;;;;;5.78;5.38;;;;;;;17.77;50.66;99257.69;4898463;29;20040;-77
2021/05/29 02:00:33;;;;;;;6.70;6.00;;;;;;;17.84;50.84;99268.28;4899147;29;20032;-78
2021/05/29 02:02:58;;;;;;;6.80;5.90;;;;;;;18.10;50.95;99305.22;4897585;29;20029;-77
2021/05/29 02:05:27;;;;;;;5.93;5.43;;;;;;;17.98;51.14;99314.28;4897300;29;20083;-77
2021/05/29 02:07:52;;;;;;;6.22;5.50;;;;;;;17.64;50.88;99265.91;4898660;29;20050;-77
2021/05/29 02:10:25;;;;;;;6.80;6.18;;;;;;;17.97;51.18;99307.31;4898806;29;20489;-77
2021/05/29 02:12:53;;;;;;;6.05;5.40;;;;;;;17.89;51.04;99281.75;4898475;29;20493;-78
2021/05/29 02:15:22;;;;;;;8.65;5.38;;;;;;;18.07;51.06;99318.25;4898328;29;20035;-78
2021/05/29 02:17:50;;;;;;;5.97;5.28;;;;;;;17.73;50.87;99253.03;4898413;29;20060;-77
2021/05/29 02:20:17;;;;;;;7.13;6.22;;;;;;;18.18;50.68;99296.03;4898527;29;20028;-77
2021/05/29 02:22:43;;;;;;;6.35;5.07;;;;;;;18.16;50.71;99306.16;4898455;29;20029;-77
2021/05/29 02:25:10;;;;;;;6.10;5.50;;;;;;;18.12;50.64;99298.84;4897789;29;20024;-77
2021/05/29 02:27:36;;;;;;;6.93;5.45;;;;;;;17.56;50.77;99231.53;4897988;29;20025;-77
2021/05/29 02:30:05;;;;;;;9.60;5.80;;;;;;;17.52;50.57;99217.03;4897931;29;20032;-78
2021/05/29 02:32:31;;;;;;;6.32;4.97;;;;;;;17.98;50.71;99291.06;4898039;29;20035;-77
2021/05/29 02:34:56;;;;;;;9.38;6.05;;;;;;;17.82;50.54;99262.34;4898026;29;20033;-77
2021/05/29 02:37:22;;;;;;;5.97;5.38;;;;;;;18.08;50.47;99309.19;4898199;29;20028;-78
2021/05/29 02:39:49;;;;;;;11.00;5.95;;;;;;;18.10;50.65;99315.09;4897543;29;20031;-77
2021/05/29 02:42:14;;;;;;;5.47;4.97;;;;;;;17.90;50.47;99296.75;4897868;29;20081;-77
2021/05/29 02:44:40;;;;;;;5.32;4.82;;;;;;;17.77;50.46;99265.72;4897970;29;20028;-77
2021/05/29 02:47:05;;;;;;;5.90;5.35;;;;;;;18.12;50.36;99313.00;4897868;29;20031;-77
2021/05/29 02:49:31;;;;;;;11.10;5.50;;;;;;;17.61;50.39;99228.16;4897968;29;20060;-77
2021/05/29 02:51:56;;;;;;;6.63;5.20;;;;;;;17.81;50.64;99276.75;4897951;29;20020;-77
2021/05/29 02:54:22;;;;;;;8.25;5.55;;;;;;;17.98;50.57;99304.41;4897819;29;20553;-77
2021/05/29 02:56:48;;;;;;;5.75;4.90;;;;;;;17.91;50.46;99300.22;4896122;29;20079;-77
2021/05/29 02:59:14;;;;;;;6.85;5.43;;;;;;;18.05;50.54;99344.38;4897136;29;20033;-77
2021/05/29 03:01:39;;;;;;;5.20;4.82;;;;;;;18.07;50.63;99339.63;4897478;29;20033;-78
2021/05/29 03:04:05;;;;;;;13.45;5.65;;;;;;;17.69;50.48;99273.25;4897505;29;20024;-78
2021/05/29 03:06:30;;;;;;;8.23;5.25;;;;;;;17.95;50.30;99304.06;4897441;29;20028;-77
2021/05/29 03:08:57;;;;;;;6.65;5.00;;;;;;;17.85;50.06;99293.13;4896308;29;20501;-77
2021/05/29 03:11:23;;;;;;;5.55;5.07;;;;;;;17.84;50.14;99300.34;4897620;29;20028;-77
2021/05/29 03:13:48;;;;;;;5.95;5.35;;;;;;;18.12;49.92;99339.72;4897375;29;20080;-77
2021/05/29 03:16:14;;;;;;;4.68;4.32;;;;;;;18.18;50.19;99346.00;4897114;29;20029;-77
2021/05/29 03:18:39;;;;;;;5.88;5.38;;;;;;;17.77;50.13;99284.41;4897210;29;20067;-77
2021/05/29 03:21:05;;;;;;;8.00;5.32;;;;;;;17.91;50.15;99302.91;4897046;29;20031;-77
2021/05/29 03:23:30;;;;;;;5.47;4.85;;;;;;;18.23;50.17;99351.47;4897504;29;20029;-77
2021/05/29 03:25:56;;;;;;;6.30;4.45;;;;;;;18.02;50.37;99331.47;4897129;29;20055;-78
2021/05/29 03:28:21;;;;;;;5.95;5.10;;;;;;;17.83;50.31;99305.88;4897047;29;20095;-77
2021/05/29 03:30:46;;;;;;;5.30;4.90;;;;;;;17.77;50.16;99300.41;4896878;29;20036;-77
2021/05/29 03:33:13;;;;;;;5.40;4.97;;;;;;;17.79;50.23;99309.00;4897232;29;20028;-77
2021/05/29 03:35:39;;;;;;;6.22;5.25;;;;;;;17.59;50.15;99281.78;4896565;29;20035;-77
2021/05/29 03:38:05;;;;;;;5.57;5.03;;;;;;;18.15;50.16;99366.00;4896488;29;20589;-76
2021/05/29 03:40:31;;;;;;;5.07;4.68;;;;;;;17.85;50.11;99315.31;4897364;29;20029;-77
2021/05/29 03:42:56;;;;;;;5.20;4.80;;;;;;;17.23;49.90;99209.91;4895758;29;20091;-77
2021/05/29 03:45:22;;;;;;;7.10;4.63;;;;;;;17.96;50.08;99333.22;4896717;29;20036;-77
2021/05/29 03:47:47;;;;;;;6.88;4.72;;;;;;;18.09;50.32;99359.72;4895551;29;20021;-77
2021/05/29 03:50:16;;;;;;;5.47;4.55;;;;;;;17.91;50.37;99333.09;4896661;29;20135;-77
2021/05/29 03:52:42;;;;;;;7.72;4.93;;;;;;;18.08;50.46;99352.75;4896906;29;20126;-76
2021/05/29 03:55:10;;;;;;;6.28;4.65;;;;;;;18.14;50.23;99360.88;4896770;29;20027;-76
2021/05/29 03:57:35;;;;;;;5.32;4.82;;;;;;;17.81;50.53;99319.47;4896454;29;20036;-76
2021/05/29 04:00:02;;;;;;;6.50;4.57;;;;;;;17.70;50.19;99299.72;4896533;29;20084;-76
2021/05/29 04:02:28;;;;;;;5.22;4.82;;;;;;;17.66;50.39;99311.91;4895423;29;20430;-76
2021/05/29 04:04:53;;;;;;;5.28;4.60;;;;;;;18.08;50.30;99360.75;4895440;29;20081;-77
2021/05/29 04:07:19;;;;;;;4.78;4.25;;;;;;;17.65;50.35;99293.41;4896524;29;20020;-76
2021/05/29 04:09:44;;;;;;;5.53;4.40;;;;;;;18.08;50.14;99351.94;4895223;29;20512;-76
2021/05/29 04:12:10;;;;;;;5.28;4.22;;;;;;;17.71;50.09;99295.19;4896584;29;20410;-76
2021/05/29 04:14:35;;;;;;;5.07;4.38;;;;;;;17.96;50.33;99349.25;4896986;29;20087;-76
2021/05/29 04:17:01;;;;;;;4.80;4.40;;;;;;;17.85;50.48;99318.00;4895205;29;20458;-76
2021/05/29 04:19:27;;;;;;;5.07;4.35;;;;;;;17.94;49.93;99316.59;4896543;29;20048;-76
2021/05/29 04:21:52;;;;;;;5.50;4.05;;;;;;;18.13;49.82;99346.69;4896845;29;20493;-77
2021/05/29 04:24:18;;;;;;;4.32;3.78;;;;;;;17.99;49.62;99332.75;4896742;29;20541;-77
2021/05/29 04:26:44;;;;;;;5.05;4.00;;;;;;;17.73;50.18;99299.25;4896639;29;20029;-76
2021/05/29 04:29:09;;;;;;;4.53;4.10;;;;;;;17.89;50.08;99334.38;4896266;29;20504;-77
2021/05/29 04:31:35;;;;;;;6.07;3.90;;;;;;;18.01;50.25;99362.72;4896467;29;20028;-77
2021/05/29 04:34:00;;;;;;;4.32;3.92;;;;;;;17.88;50.24;99330.88;4896738;29;20112;-77
2021/05/29 04:36:26;;;;;;;5.93;3.90;;;;;;;18.06;50.20;99354.00;4896601;29;20029;-77
2021/05/29 04:38:51;;;;;;;5.35;4.03;;;;;;;17.57;50.14;99275.88;4896732;29;20032;-76
2021/05/29 04:41:17;;;;;;;5.38;4.28;;;;;;;18.29;49.64;99378.06;4896540;29;20123;-76
2021/05/29 04:43:42;;;;;;;5.70;4.25;;;;;;;17.98;49.77;99322.31;4896398;29;20033;-77
2021/05/29 04:46:08;;;;;;;4.50;3.80;;;;;;;18.23;49.71;99365.63;4896123;29;20029;-77
2021/05/29 04:48:33;;;;;;;4.82;4.40;;;;;;;18.22;50.15;99382.72;4898850;29;20478;-77
2021/05/29 04:51:12;;;;;;;5.30;4.53;;;;;;;18.22;50.23;99377.38;4899852;29;20118;-76
2021/05/29 04:53:38;;;;;;;6.43;4.07;;;;;;;18.29;50.11;99379.94;4899868;29;20025;-77
2021/05/29 04:56:04;;;;;;;4.32;3.85;;;;;;;18.15;50.11;99371.34;4899743;29;20036;-77
2021/05/29 04:58:29;;;;;;;4.53;4.07;;;;;;;18.06;50.10;99338.81;4899782;29;20383;-77
2021/05/29 05:00:55;;;;;;;4.57;3.92;;;;;;;18.42;49.91;99379.69;4899817;29;20031;-76
2021/05/29 05:03:21;;;;;;;7.97;4.15;;;;;;;18.46;49.92;99372.03;4899789;29;20028;-76
2021/05/29 05:05:47;;;;;;;4.75;3.95;;;;;;;18.58;49.42;99387.03;4899730;29;20028;-76
2021/05/29 05:08:12;;;;;;;3.78;3.47;;;;;;;18.16;49.39;99303.47;4899684;29;20023;-77
2021/05/29 05:10:38;;;;;;;5.80;3.67;;;;;;;18.45;49.15;99317.75;4899631;29;20024;-76
2021/05/29 05:13:03;;;;;;;6.68;3.92;;;;;;;18.55;48.90;99330.53;4899444;29;20470;-77
2021/05/29 05:15:29;;;;;;;5.68;3.92;;;;;;;18.63;48.81;99340.91;4899411;29;20025;-77
2021/05/29 05:17:55;;;;;;;6.55;3.53;;;;;;;18.51;48.84;99318.66;4899211;29;20028;-77
2021/05/29 05:20:21;;;;;;;3.80;3.50;;;;;;;18.97;49.03;99398.06;4898608;29;20552;-76
2021/05/29 05:22:47;;;;;;;6.47;3.80;;;;;;;18.93;48.78;99380.88;4899250;29;20565;-76
2021/05/29 05:25:13;;;;;;;4.03;3.42;;;;;;;18.97;48.76;99390.84;4898956;29;20024;-76
2021/05/29 05:27:39;;;;;;;4.88;4.00;;;;;;;18.68;48.64;99363.22;4898973;29;20088;-76
2021/05/29 05:30:10;;;;;;;5.40;3.40;;;;;;;18.83;48.74;99364.59;4899179;29;20382;-76
2021/05/29 05:32:37;;;;;;;5.88;4.15;;;;;;;18.99;49.06;99401.31;4899205;29;20119;-76
2021/05/29 05:35:07;;;;;;;4.75;3.72;;;;;;;18.94;48.71;99406.56;4899073;29;20038;-76
2021/05/29 05:37:33;;;;;;;4.75;3.30;;;;;;;18.98;48.38;99418.44;4899094;29;20021;-76
2021/05/29 05:39:58;;;;;;;7.80;3.95;;;;;;;18.61;48.82;99351.84;4898872;29;20413;-77
2021/05/29 05:42:23;;;;;;;4.88;3.40;;;;;;;18.46;48.92;99337.28;4897651;29;20545;-77
2021/05/29 05:44:49;;;;;;;4.13;3.72;;;;;;;18.66;48.94;99384.06;4898801;29;20029;-77
2021/05/29 05:47:14;;;;;;;6.07;4.28;;;;;;;18.55;48.80;99336.69;4899049;29;20036;-77
2021/05/29 05:49:40;;;;;;;4.95;3.63;;;;;;;18.65;49.00;99373.59;4898847;29;20020;-77
2021/05/29 05:52:06;;;;;;;8.18;3.83;;;;;;;19.04;48.98;99422.84;4899147;29;20029;-76
2021/05/29 05:54:31;;;;;;;3.90;3.60;;;;;;;18.83;48.89;99386.81;4899141;29;20031;-77
2021/05/29 05:56:56;;;;;;;5.40;3.70;;;;;;;18.76;48.71;99355.91;4898802;29;20032;-77
2021/05/29 05:59:22;;;;;;;5.05;3.90;;;;;;;18.91;48.51;99404.38;4898252;29;20063;-77
2021/05/29 06:01:48;;;;;;;4.80;3.58;;;;;;;18.84;48.62;99385.75;4899106;29;20024;-77
2021/05/29 06:04:14;;;;;;;3.50;3.20;;;;;;;19.10;48.64;99418.41;4898257;29;20024;-77
2021/05/29 06:06:40;;;;;;;4.88;3.47;;;;;;;18.87;48.37;99363.09;4898366;29;20032;-77
2021/05/29 06:09:06;;;;;;;4.07;3.15;;;;;;;18.98;48.14;99370.25;4898243;29;20099;-77
2021/05/29 06:11:32;;;;;;;3.60;2.90;;;;;;;19.19;48.35;99399.06;4898294;29;20091;-77
2021/05/29 06:19:12;;;;;;;4.60;3.20;;;;;;;19.14;48.01;99376.72;4898446;29;20031;-77
2021/05/29 06:21:43;;;;;;;5.88;3.05;;;;;;;19.54;47.86;99427.63;4899117;29;20112;-77
2021/05/29 06:24:08;;;;;;;5.75;3.38;;;;;;;19.19;47.79;99363.44;4898928;29;20062;-76
2021/05/29 06:26:33;;;;;;;4.25;3.10;;;;;;;19.61;47.82;99423.75;4898202;29;20028;-76
2021/05/29 06:28:59;;;;;;;7.30;3.15;;;;;;;19.47;47.54;99427.75;4898314;29;20044;-76
2021/05/29 06:31:24;;;;;;;4.25;3.08;;;;;;;18.96;47.42;99324.19;4898368;29;20413;-77
2021/05/29 06:33:50;;;;;;;6.00;2.92;;;;;;;19.68;47.41;99423.59;4898014;29;20060;-77
2021/05/29 06:36:15;;;;;;;4.65;3.08;;;;;;;19.59;47.28;99407.13;4898201;29;20168;-77
2021/05/29 06:38:41;;;;;;;5.15;3.10;;;;;;;19.37;47.06;99365.97;4898182;29;20170;-77
2021/05/29 06:41:06;;;;;;;3.60;3.22;;;;;;;19.52;47.01;99408.28;4897624;29;20468;-76
2021/05/29 06:43:31;;;;;;;6.28;3.15;;;;;;;19.49;46.85;99387.34;4898103;29;20039;-77
2021/05/29 06:45:57;;;;;;;4.30;3.45;;;;;;;19.59;46.95;99390.22;4897986;29;20092;-77
2021/05/29 06:48:24;;;;;;;7.10;3.45;;;;;;;19.80;47.03;99429.72;4897849;29;20021;-77
2021/05/29 06:50:54;;;;;;;5.90;3.17;;;;;;;19.95;46.90;99434.53;4896324;29;20107;-77
2021/05/29 06:53:26;;;;;;;3.78;3.00;;;;;;;20.07;46.35;99448.72;4897848;29;20024;-77
2021/05/29 06:58:53;;;;;;;6.05;3.75;;;;;;;20.07;46.57;99424.59;4897656;29;20181;-77
2021/05/29 07:01:23;;;;;;;5.70;3.63;;;;;;;20.33;46.22;99446.44;4897867;29;20503;-77
2021/05/29 07:03:50;;;;;;;3.75;3.22;;;;;;;20.12;45.94;99413.13;4897526;29;20051;-76
2021/05/29 07:06:16;;;;;;;4.63;2.80;;;;;;;20.49;45.72;99469.81;4897351;29;20036;-76
2021/05/29 07:08:41;;;;;;;6.32;3.13;;;;;;;20.16;45.34;99416.97;4897423;29;20021;-76
2021/05/29 07:11:07;;;;;;;3.90;2.92;;;;;;;20.24;45.14;99425.41;4895933;29;20024;-77
2021/05/29 07:13:33;;;;;;;3.47;2.97;;;;;;;20.09;45.09;99384.94;4895880;29;20109;-77
2021/05/29 07:15:59;;;;;;;3.45;2.58;;;;;;;20.25;44.86;99410.94;4896123;29;20454;-77
2021/05/29 07:18:29;;;;;;;3.83;3.30;;;;;;;20.16;45.11;99400.88;4897097;29;20032;-77
2021/05/29 07:20:55;;;;;;;5.53;2.80;;;;;;;20.26;44.74;99396.47;4897128;29;20112;-76
2021/05/29 07:23:21;;;;;;;3.97;2.70;;;;;;;20.76;44.97;99461.88;4897338;29;20112;-77
2021/05/29 07:25:46;;;;;;;4.75;2.53;;;;;;;20.76;44.58;99465.38;4897182;29;20032;-77
2021/05/29 07:28:11;;;;;;;6.15;3.17;;;;;;;20.79;44.58;99470.25;4897020;29;20418;-77
2021/05/29 07:30:37;;;;;;;5.25;2.88;;;;;;;20.54;44.17;99425.09;4896991;29;20490;-77
2021/05/29 07:33:04;;;;;;;7.45;3.10;;;;;;;20.81;44.40;99460.13;4897272;29;20111;-77
2021/05/29 07:35:29;;;;;;;6.18;3.50;;;;;;;20.52;44.58;99411.13;4897114;29;20025;-76
2021/05/29 07:37:55;;;;;;;4.68;3.08;;;;;;;20.94;44.69;99475.88;4895615;29;20403;-77
2021/05/29 07:40:22;;;;;;;5.38;2.70;;;;;;;21.12;44.55;99469.41;4895757;29;20056;-77
2021/05/29 07:42:48;;;;;;;5.20;2.70;;;;;;;20.79;44.63;99408.53;4896861;29;20036;-76
2021/05/29 07:45:14;;;;;;;3.70;3.05;;;;;;;21.08;44.17;99433.38;4896672;29;20473;-77
2021/05/29 07:47:40;;;;;;;4.03;2.85;;;;;;;21.13;43.57;99435.31;4896916;29;20039;-77
2021/05/29 07:50:07;;;;;;;3.40;3.05;;;;;;;21.02;43.89;99409.41;4896908;29;20025;-77
2021/05/29 07:52:33;;;;;;;4.95;3.05;;;;;;;21.37;43.81;99466.25;4896754;29;20095;-77
2021/05/29 07:54:58;;;;;;;3.92;3.38;;;;;;;21.10;43.38;99404.41;4896636;29;20478;-77
2021/05/29 07:57:24;;;;;;;7.18;4.38;;;;;;;21.14;43.21;99418.13;4896300;29;20446;-77
2021/05/29 07:59:49;;;;;;;6.05;3.50;;;;;;;21.08;43.19;99397.66;4895150;29;20037;-76
2021/05/29 08:02:14;;;;;;;26.58;12.38;;;;;;;21.66;43.42;99471.44;4896525;29;20037;-77
2021/05/29 08:04:40;;;;;;;8.35;3.97;;;;;;;21.34;42.98;99404.16;4897844;29;20060;-78
2021/05/29 08:07:06;;;;;;;5.40;3.47;;;;;;;21.35;42.71;99420.03;4896977;29;20024;-77
2021/05/29 08:09:31;;;;;;;12.27;5.88;;;;;;;21.65;43.14;99464.44;4896816;29;20028;-77
2021/05/29 08:11:56;;;;;;;11.90;7.57;;;;;;;21.74;42.79;99458.38;4896410;29;20501;-77
2021/05/29 08:14:22;;;;;;;8.13;5.95;;;;;;;21.89;42.77;99482.72;4896451;29;20028;-77
2021/05/29 08:16:47;;;;;;;11.63;7.40;;;;;;;22.07;42.77;99480.75;4895463;29;20164;-77
2021/05/29 08:19:13;;;;;;;6.75;5.45;;;;;;;21.70;42.67;99395.44;4896522;29;20033;-77
2021/05/29 08:21:49;;;;;;;6.20;3.70;;;;;;;21.98;41.36;99423.94;4896516;29;20028;-77
2021/05/29 08:24:14;;;;;;;8.15;5.20;;;;;;;22.44;42.03;99489.72;4900102;29;20024;-77
2021/05/29 08:26:40;;;;;;;2.90;2.65;;;;;;;22.24;42.14;99456.44;4900265;29;20035;-77
2021/05/29 08:29:06;;;;;;;6.35;2.55;;;;;;;22.16;41.84;99433.53;4900204;29;20425;-77
2021/05/29 08:31:33;;;;;;;3.95;2.58;;;;;;;22.24;41.48;99432.25;4900465;29;20582;-77
2021/05/29 08:33:59;;;;;;;4.50;3.90;;;;;;;22.72;41.29;99479.72;4900115;29;20039;-77
2021/05/29 08:36:26;;;;;;;4.93;2.78;;;;;;;22.85;41.05;99478.47;4900173;29;20044;-76
2021/05/29 08:38:52;;;;;;;3.75;2.38;;;;;;;22.95;40.80;99470.47;4898500;29;20055;-77
2021/05/29 08:41:18;;;;;;;5.13;2.33;;;;;;;22.67;40.84;99417.78;4900034;29;20064;-77
2021/05/29 08:43:44;;;;;;;2.70;2.47;;;;;;;23.14;40.62;99477.06;4898995;29;20021;-77
2021/05/29 08:46:10;;;;;;;4.22;2.70;;;;;;;23.04;40.27;99452.75;4898659;29;20025;-77
2021/05/29 08:48:38;;;;;;;6.63;2.60;;;;;;;23.25;39.84;99465.25;4900119;29;20405;-77
2021/05/29 08:51:13;;;;;;;2.58;2.00;;;;;;;23.26;39.63;99450.72;4899907;29;20032;-77
2021/05/29 08:53:43;;;;;;;4.72;2.20;;;;;;;23.39;39.31;99447.53;4899622;29;20466;-77
2021/05/29 08:56:09;;;;;;;4.80;1.90;;;;;;;23.77;38.59;99480.56;4899348;29;20048;-77
2021/05/29 08:58:34;;;;;;;3.42;2.25;;;;;;;23.42;38.44;99401.19;4899426;29;20244;-77
2021/05/29 09:01:01;;;;;;;3.25;2.13;;;;;;;23.87;38.24;99485.19;4899333;29;20114;-77
2021/05/29 09:03:48;;;;;;;3.90;2.35;;;;;;;23.79;37.94;99477.63;4898325;29;20104;-77
2021/05/29 09:06:30;;;;;;;3.50;2.10;;;;;;;23.93;37.68;99471.44;4899728;29;20043;-77
2021/05/29 09:08:58;;;;;;;2.53;1.98;;;;;;;23.91;37.44;99422.38;4899729;29;20100;-76
2021/05/29 09:11:41;;;;;;;2.95;2.10;;;;;;;24.33;36.47;99467.19;4899454;29;20088;-76
2021/05/29 09:14:24;;;;;;;3.45;2.15;;;;;;;24.51;36.65;99457.75;4899410;29;20021;-77
2021/05/29 09:17:10;;;;;;;2.13;1.92;;;;;;;24.84;36.38;99464.47;4899383;29;20028;-77
2021/05/29 09:19:59;;;;;;;2.95;2.00;;;;;;;25.04;36.48;99459.03;4899273;29;20031;-77
2021/05/29 09:22:28;;;;;;;5.20;2.38;;;;;;;25.23;36.00;99462.75;4899283;29;20033;-77
2021/05/29 09:25:10;;;;;;;4.20;2.30;;;;;;;25.34;36.00;99456.25;4899252;29;20029;-76
2021/05/29 09:27:39;;;;;;;4.35;2.33;;;;;;;25.47;35.88;99448.63;4898009;29;20096;-76
2021/05/29 09:30:07;;;;;;;4.20;2.28;;;;;;;25.49;35.10;99424.84;4898922;29;20021;-76
2021/05/29 09:32:35;;;;;;;3.45;2.10;;;;;;;25.74;35.07;99438.22;4898983;29;20502;-76
2021/05/29 09:35:07;;;;;;;3.78;2.35;;;;;;;25.85;34.92;99436.28;4898023;29;20071;-76
2021/05/29 09:37:33;;;;;;;2.90;1.85;;;;;;;25.63;34.44;99388.78;4899605;29;20788;-76
2021/05/29 09:40:02;;;;;;;3.58;2.10;;;;;;;25.75;34.02;99401.19;4898875;29;20115;-76
2021/05/29 09:42:34;;;;;;;4.30;2.17;;;;;;;26.17;34.25;99433.09;4898835;29;20034;-77
2021/05/29 09:45:27;;;;;;;2.38;2.08;;;;;;;26.23;33.29;99418.41;4898701;29;20145;-76
2021/05/29 09:48:10;;;;;;;2.63;1.92;;;;;;;26.33;33.29;99433.78;4898368;29;20429;-77
2021/05/29 09:51:04;;;;;;;3.63;2.08;;;;;;;25.86;33.63;99435.19;4898998;29;20024;-77
2021/05/29 09:53:48;;;;;;;4.45;1.95;;;;;;;25.38;34.27;99396.25;4897372;29;20028;-77
2021/05/29 09:56:31;;;;;;;4.15;2.30;;;;;;;25.53;34.42;99447.53;4898395;29;20047;-76
2021/05/29 09:59:01;;;;;;;2.75;1.80;;;;;;;25.79;34.35;99440.91;4897262;29;20044;-77
2021/05/29 10:01:51;;;;;;;2.75;2.05;;;;;;;26.23;33.84;99434.66;4898674;29;20055;-77
2021/05/29 10:04:36;;;;;;;2.58;2.03;;;;;;;26.47;33.45;99408.47;4893501;29;20138;-77
2021/05/29 10:07:12;;;;;;;4.63;2.40;;;;;;;26.92;32.33;99437.00;4898318;29;20020;-77
2021/05/29 10:09:37;;;;;;;2.63;1.90;;;;;;;26.57;32.53;99388.63;4898278;29;20029;-77
2021/05/29 10:12:04;;;;;;;7.57;4.38;;;;;;;26.91;32.40;99405.59;4898357;29;20420;-76
2021/05/29 10:14:31;;;;;;;7.35;5.22;;;;;;;27.20;32.05;99410.97;4898351;29;20035;-77
2021/05/29 10:17:02;;;;;;;3.47;2.17;;;;;;;27.37;31.18;99425.94;4898132;29;20440;-77
2021/05/29 10:19:29;;;;;;;;;;;;;;;27.34;32.39;99426.50;4898729;29;20096;-77
2021/05/29 10:21:56;;;;;;;2.55;2.35;;;;;;;27.48;32.01;99432.84;4898158;29;19946;-77
2021/05/29 10:24:24;;;;;;;5.43;2.35;;;;;;;27.66;31.82;99420.44;4898154;29;20037;-77
2021/05/29 10:26:52;;;;;;;4.47;1.90;;;;;;;27.39;31.61;99381.16;4898329;29;20051;-77
2021/05/29 10:29:23;;;;;;;2.83;2.00;;;;;;;27.33;31.40;99371.47;4898191;29;20028;-77
2021/05/29 10:31:48;;;;;;;2.67;1.73;;;;;;;27.60;31.37;99392.56;4897238;29;20033;-77
2021/05/29 10:34:13;;;;;;;3.30;2.28;;;;;;;27.73;30.90;99418.97;4898135;29;20028;-77
2021/05/29 10:36:42;;;;;;;3.50;2.20;;;;;;;27.73;30.96;99416.25;4898098;29;20084;-77
2021/05/29 10:39:20;;;;;;;2.30;2.10;;;;;;;27.68;31.39;99415.53;4897695;29;20168;-77
2021/05/29 10:41:53;;;;;;;2.10;1.90;;;;;;;27.98;30.66;99416.97;4897823;29;20036;-77
2021/05/29 10:44:33;;;;;;;1.63;1.52;;;;;;;28.21;30.27;99423.38;4897814;29;20026;-77
2021/05/29 10:47:03;;;;;;;1.98;1.80;;;;;;;28.20;30.35;99409.00;4896159;29;20025;-77
2021/05/29 10:49:50;;;;;;;5.43;2.20;;;;;;;28.41;29.89;99413.03;4897724;29;20035;-77
2021/05/29 10:52:33;;;;;;;2.25;1.60;;;;;;;28.76;29.91;99417.00;4897639;29;20032;-77
2021/05/29 10:55:22;;;;;;;3.75;1.77;;;;;;;28.97;28.78;99405.75;4897777;29;20020;-77
2021/05/29 10:58:05;;;;;;;3.35;1.90;;;;;;;28.98;29.05;99402.75;4896231;29;20040;-77
2021/05/29 11:00:40;;;;;;;5.25;2.50;;;;;;;28.95;29.06;99397.91;4897645;29;20108;-77
2021/05/29 11:03:22;;;;;;;3.42;2.03;;;;;;;29.20;28.27;99396.59;4897662;29;20033;-77
2021/05/29 11:05:50;;;;;;;4.85;2.40;;;;;;;29.32;28.71;99390.63;4897341;29;20060;-77
2021/05/29 11:08:51;;;;;;;3.10;2.08;;;;;;;29.52;27.82;99392.94;4897251;29;20040;-76
2021/05/29 11:11:48;;;;;;;2.45;1.67;;;;;;;29.73;27.99;99391.38;4897256;29;20029;-77
2021/05/29 11:14:14;;;;;;;4.05;1.80;;;;;;;29.76;28.20;99372.84;4897345;29;20039;-77
2021/05/29 11:16:46;;;;;;;1.63;1.38;;;;;;;30.01;27.77;99396.72;4897397;29;20509;-77
2021/05/29 11:19:13;;;;;;;2.80;1.70;;;;;;;30.18;27.22;99390.59;4897180;29;20040;-76
2021/05/29 11:21:59;;;;;;;3.58;1.55;;;;;;;30.24;26.39;99394.81;4897283;29;20028;-77
2021/05/29 11:24:25;;;;;;;1.70;1.52;;;;;;;30.36;27.15;99384.94;4897218;29;20024;-76
2021/05/29 11:26:50;;;;;;;2.92;1.70;;;;;;;29.93;26.86;99338.38;4897099;29;20032;-76
2021/05/29 11:29:16;;;;;;;3.22;1.92;;;;;;;30.36;27.12;99387.66;4896710;29;20079;-76
2021/05/29 11:31:46;;;;;;;3.67;2.05;;;;;;;30.10;27.01;99331.44;4897066;29;20025;-76
2021/05/29 11:34:11;;;;;;;6.30;2.20;;;;;;;30.22;26.61;99326.22;4896923;29;20119;-77
2021/05/29 11:36:39;;;;;;;2.03;1.48;;;;;;;30.84;26.61;99386.16;4897099;29;20064;-77
2021/05/29 11:39:10;;;;;;;3.05;1.63;;;;;;;30.76;26.49;99382.28;4897469;29;20112;-77
2021/05/29 11:41:36;;;;;;;7.78;2.42;;;;;;;30.94;26.52;99386.66;4896855;29;20501;-77
2021/05/29 11:44:02;;;;;;;2.22;2.03;;;;;;;31.17;26.52;99383.88;4896863;29;20036;-77
2021/05/29 11:46:30;;;;;;;2.63;1.95;;;;;;;30.59;26.18;99308.66;4896602;29;20493;-77